Saturday, April 19, 2014
02:12 UTC
  |  Log In   |  Register Free
Airport Search:

Fort Smith Regional Airport
(KFSM)

FAA data valid effective April 3, 2014 until May 29, 2014 (unless otherwise noted).

 
 
 
 
 
 
 
 
 
 
 
 
 
 

Current Aviation Weather for Fort Smith Regional Airport (KFSM)

The most recent METAR observation for KFSM was updated at: 0153 UTC
METAR Summary (Translated METAR)
KFSM
190153Z 13004KT 10SM CLR 17/07 A3014 RMK AO2 SLP205 T01720067
KJSV
(22.2 nm NW from KFSM)
182250Z AUTO 20012G15KT 10SM CLR 23/05 A2954 RMK AO2
TAF Summary (Translated TAF)
KFSM
181732Z 1818/1918 05005KT P6SM SKC FM190000 07003KT P6SM SKC
  Airport Weather Conditions for KFSM

 Current Weather at FSM
71° F
Fair
Southeast winds at 3.5 mph
FSM NOAA Radar

Pressure: 30.12 in
Humidity: 34%
Wind: Southeast at 3.5 MPH (3 KT)
Dew Point: 41.0°F
Visibility: 10.00 mi


Airport Weather Forecast for KFSM

Translated METAR and TAF for KFSM
Translated METAR for KFSM (0212 UTC 19 April 2014)
found at http://aviationweather.gov/adds/metars/
 
METAR text: KFSM 190153Z 13004KT 10SM CLR 17/07 A3014 RMK AO2 SLP205 T01720067
Conditions at: KFSM (FORT SMITH , AR, US) observed 0153 UTC 19 April 2014
Temperature: 17.2°C (63°F)
Dewpoint: 6.7°C (44°F) [RH = 50%]
Pressure (altimeter): 30.14 inches Hg (1020.7 mb)
[Sea-level pressure: 1020.5 mb]
Winds: from the SE (130 degrees) at 5 MPH (4 knots; 2.1 m/s)
Visibility: 10 or more miles (16+ km)
Ceiling: at least 12,000 feet AGL
Clouds: sky clear below 12,000 feet AGL
Weather: no significant weather observed at this time
Translated TAF for KFSM
Forecast for: KFSM (FORT SMITH , AR, US)
TAF Text: KFSM 182320Z 1900/1924 08003KT P6SM SKC
Forecast period: 0000 to 1800 UTC 19 April 2014
Forecast type: FROM: standard forecast or significant change
Winds: from the E (80 degrees) at 3 MPH (3 knots; 1.6 m/s)
Visibility: 6 or more miles (10+ km)
Clouds: clear skies
Weather: no significant weather forecast for this period
TAF Text: FM191800 12006KT P6SM FEW060 FEW250
Forecast period: 1800 UTC 19 April 2014 to 0000 UTC 20 April 2014
Forecast type: FROM: standard forecast or significant change
Winds: from the ESE (120 degrees) at 7 MPH (6 knots; 3.1 m/s)
Visibility: 6 or more miles (10+ km)
Clouds: few clouds at 6000 feet AGL
few clouds at 25000 feet AGL
Weather: no significant weather forecast for this period

Find All Airport Services Find A Hotel Find A Rental Car Find A Golf Course Find A Restaurant $100 Hamburger



FBO's on the Field
FBO Company Facility Photos Services Transportation Aviation Fuel Prices: Prices include tax
Catering Weather Repair Courtesy Rental Type 100LL JetA JetA+ MOGAS 8087
 
TAC Air - FSM

This FBO has not yet been rated
FS:Independent
Last Updated: Apr-11
Login to update fuel prices
SS:
Contact TAC Air - FSMMore FBO Information
 
Add another FBO Facility Photos Catering Weather Repair Courtesy Rental Type 100LL JetA JetA+ MOGAS 8087
Services Transportation Aviation Fuel Prices: Prices include tax


GlobalAir.com Airport Resource Center model-print
model-print
model-print
model-print